Latest Weather Observations for Cape Leeuwin

IDW60801

Issued at 6:32 pm WST Tuesday 7 July 2015 (issued every 30 minutes, with the page automatically refreshed every 10 minutes)

About weather observations | Map of weather stations | Latest weather observations for WA | Other Formats
Station Details ID: 009518 Name: CAPE LEEUWIN Lat: -34.37 Lon: 115.14 Height: 13.0 m
Data from the previous 72 hours. | See also: Recent months at Cape Leeuwin
Date/Time
WST
Temp
°C
App
Temp
°C
Dew
Point
Rel
Hum
%
Delta-T
°C
Wind Press
QNH
hPa
Press
MSL
hPa
Rain
since 9 am
mm
Dir
 
Spd
km/h
Gust
km/h
Spd
kts
Gust
kts
07/06:30pm 13.4 6.1 10.3 81 1.6 SSW 39 48 21 26 1019.4 1019.4 6.4
07/06:00pm 12.8 5.6 10.7 87 1.1 SSW 39 54 21 29 1019.1 1019.1 6.4
07/05:47pm 13.5 7.8 11.8 89 0.9 SW 33 52 18 28 1018.9 1018.9 6.2
07/05:30pm 13.9 7.9 10.9 82 1.6 SW 33 39 18 21 1018.6 1018.6 6.0
07/05:00pm 13.8 5.6 10.3 79 1.8 SW 44 52 24 28 1018.3 1018.3 6.0
07/04:30pm 14.6 7.2 10.0 74 2.4 SW 39 48 21 26 1017.9 1017.9 6.0
07/04:04pm 15.2 9.9 11.1 76 2.2 SW 30 50 16 27 1017.4 1017.4 6.0
07/04:00pm 15.3 10.3 9.5 68 3.0 SW 26 32 14 17 1017.4 1017.4 6.0
07/03:30pm 15.4 12.2 10.0 70 2.8 SW 17 24 9 13 1017.3 1017.3 6.0
07/03:00pm 15.4 11.3 10.0 70 2.8 WSW 22 28 12 15 1017.1 1017.1 6.0
07/02:30pm 15.4 11.8 10.5 72 2.6 SW 20 30 11 16 1016.9 1016.9 6.0
07/02:00pm 14.8 10.6 11.0 78 2.0 WSW 24 33 13 18 1016.9 1016.9 6.0
07/01:51pm 14.8 9.8 11.0 78 2.0 WSW 28 35 15 19 1016.9 1016.9 6.0
07/01:30pm 14.2 12.5 12.4 89 1.0 WSW 13 17 7 9 1017.0 1017.0 6.0
07/01:00pm 14.2 11.3 12.4 89 1.0 SSW 19 26 10 14 1017.2 1017.2 6.0
07/12:30pm 14.2 11.1 13.3 94 0.5 SSW 22 32 12 17 1017.4 1017.4 5.6
07/12:00pm 13.9 9.7 12.4 91 0.8 SSW 26 37 14 20 1017.7 1017.7 4.6
07/11:30am 13.9 9.8 12.8 93 0.6 SSW 26 35 14 19 1017.8 1017.8 4.0
07/11:00am 14.5 10.0 13.8 96 0.4 SSW 30 37 16 20 1017.9 1017.9 3.4
07/10:30am 14.7 10.7 14.0 96 0.4 SSW 28 35 15 19 1017.8 1017.8 1.8
07/10:12am 14.6 9.5 13.7 94 0.5 SSW 33 48 18 26 1017.5 1017.5 0.6
07/10:00am 15.5 12.4 14.4 93 0.6 SSW 24 30 13 16 1017.3 1017.3 0.0
07/09:30am 16.2 11.5 14.4 89 1.0 SW 32 44 17 24 1017.1 1017.1 0.0
07/09:24am 17.1 11.9 14.5 85 1.5 WNW 35 44 19 24 1016.8 1016.8 0.0
07/09:00am 17.4 11.7 14.3 82 1.8 NW 37 46 20 25 1016.8 1016.8 0.6
07/08:30am 17.8 10.5 12.8 72 2.8 WNW 43 50 23 27 1016.5 1016.5 0.6
07/08:00am 17.5 9.9 12.4 72 2.8 NW 44 50 24 27 1016.4 1016.4 0.6
07/07:30am 17.6 10.0 12.4 71 2.9 WNW 44 50 24 27 1016.3 1016.3 0.6
07/07:00am 17.7 10.7 12.5 71 2.9 WNW 41 48 22 26 1016.2 1016.2 0.6
07/06:30am 17.8 10.4 12.4 70 3.0 WNW 43 48 23 26 1016.0 1016.0 0.6
07/06:00am 17.7 10.5 13.1 74 2.6 WNW 43 50 23 27 1015.9 1015.9 0.6
07/05:30am 17.6 10.2 12.4 71 2.9 WNW 43 50 23 27 1015.9 1015.9 0.6
07/05:00am 17.4 9.3 13.3 77 2.3 WNW 48 56 26 30 1015.8 1015.8 0.6
07/04:30am 17.1 12.1 13.9 81 1.8 WNW 33 39 18 21 1016.1 1016.1 0.6
07/04:00am 16.7 10.5 13.7 82 1.7 WNW 39 46 21 25 1016.3 1016.3 0.6
07/03:30am 16.2 8.8 14.1 87 1.2 WNW 46 57 25 31 1016.7 1016.7 0.4
07/03:00am 17.7 10.9 11.9 69 3.2 NW 39 48 21 26 1016.6 1016.6 0.4
07/02:30am 17.5 10.4 11.0 65 3.5 NW 39 46 21 25 1016.7 1016.7 0.4
07/02:00am 17.5 10.9 11.4 67 3.3 NW 37 43 20 23 1016.8 1016.8 0.4
07/01:30am 17.4 11.1 10.9 65 3.5 WNW 35 46 19 25 1017.0 1017.0 0.4
07/01:00am 17.6 10.8 10.5 63 3.8 WNW 37 43 20 23 1017.1 1017.1 0.4
07/12:30am 17.6 11.4 9.4 58 4.3 NW 32 41 17 22 1017.3 1017.3 0.4
07/12:00am 17.2 10.5 10.9 66 3.4 NW 37 43 20 23 1017.5 1017.5 0.4
 
Date/Time
WST
Temp
°C
App
Temp
°C
Dew
Point
Rel
Hum
%
Delta-T
°C
Wind Press
QNH
hPa
Press
MSL
hPa
Rain
since 9 am
mm
Dir
 
Spd
km/h
Gust
km/h
Spd
kts
Gust
kts
06/11:30pm 17.6 11.6 10.9 65 3.6 WNW 33 39 18 21 1017.8 1017.8 0.4
06/11:00pm 17.4 10.4 11.3 67 3.3 NW 39 46 21 25 1017.9 1017.9 0.4
06/10:30pm 17.5 9.8 8.5 55 4.6 WNW 39 50 21 27 1017.9 1017.9 0.4
06/10:00pm 17.4 10.7 9.6 60 4.1 WNW 35 44 19 24 1018.1 1018.1 0.4
06/09:30pm 17.4 9.7 10.0 62 3.9 WNW 41 48 22 26 1018.1 1018.1 0.4
06/09:00pm 17.5 10.9 11.4 67 3.3 WNW 37 43 20 23 1018.2 1018.2 0.4
06/08:30pm 17.6 11.5 10.3 62 3.9 WNW 33 41 18 22 1018.4 1018.4 0.4
06/08:00pm 17.6 9.8 9.6 59 4.2 WNW 41 46 22 25 1018.5 1018.5 0.4
06/07:30pm 17.7 9.4 9.9 60 4.1 WNW 44 52 24 28 1018.3 1018.3 0.4
06/07:00pm 17.6 11.3 12.3 71 2.9 WNW 37 46 20 25 1018.2 1018.2 0.4
06/06:30pm 17.4 12.5 13.7 79 2.1 WNW 32 39 17 21 1018.1 1018.1 0.4
06/06:00pm 16.8 12.8 14.2 85 1.5 W 28 32 15 17 1018.1 1018.1 0.4
06/05:30pm 16.2 11.3 13.7 85 1.4 W 32 39 17 21 1018.2 1018.2 0.4
06/05:00pm 16.3 12.1 14.7 90 0.9 WSW 30 37 16 20 1017.8 1017.8 0.0
06/04:30pm 17.0 12.9 14.9 87 1.2 WSW 30 35 16 19 1017.7 1017.7 0.0
06/04:00pm 17.3 12.8 14.9 86 1.4 W 32 35 17 19 1017.6 1017.6 0.0
06/03:30pm 17.6 13.1 14.8 84 1.6 WNW 32 35 17 19 1017.4 1017.4 0.0
06/03:00pm 18.4 13.7 14.4 77 2.3 NW 32 39 17 21 1017.2 1017.2 0.0
06/02:30pm 18.7 13.4 12.4 67 3.5 WNW 32 35 17 19 1017.2 1017.2 0.0
06/02:00pm 18.7 13.6 13.0 69 3.2 WNW 32 39 17 21 1016.9 1016.9 0.0
06/01:30pm 18.4 13.6 14.0 75 2.5 WNW 32 37 17 20 1017.1 1017.1 0.0
06/01:00pm 18.3 13.5 13.9 75 2.5 NW 32 37 17 20 1017.4 1017.4 0.0
06/12:30pm 18.0 11.9 14.0 77 2.3 WNW 39 43 21 23 1017.8 1017.8 0.0
06/12:00pm 18.3 12.6 14.3 77 2.3 NW 37 48 20 26 1018.1 1018.1 0.0
06/11:55am 18.6 13.6 14.1 75 2.6 NW 33 48 18 26 1018.1 1018.1 0.0
06/11:30am 18.0 16.1 14.3 79 2.1 N 17 26 9 14 1018.7 1018.7 0.0
06/11:00am 17.0 14.9 14.6 86 1.4 NNE 19 28 10 15 1019.2 1019.2 0.0
06/10:30am 16.9 14.0 14.1 83 1.6 N 22 30 12 16 1019.4 1019.4 0.0
06/10:00am 15.2 11.8 13.6 90 0.9 NNE 24 32 13 17 1019.4 1019.4 0.0
06/09:30am 14.8 10.9 13.4 91 0.8 NNE 26 35 14 19 1019.3 1019.3 0.0
06/09:00am 14.6 10.3 13.3 92 0.7 NNE 28 41 15 22 1019.2 1019.2 0.0
06/08:30am 14.4 9.5 12.6 89 1.0 NNE 30 41 16 22 1019.0 1019.0 0.0
06/08:00am 13.8 9.1 11.9 88 1.0 NNE 28 39 15 21 1019.1 1019.1 0.0
06/07:30am 13.9 9.1 11.7 86 1.2 NNE 28 35 15 19 1019.1 1019.1 0.0
06/07:00am 13.6 8.8 11.5 87 1.1 NNE 28 35 15 19 1018.9 1018.9 0.0
06/06:30am 14.0 10.3 11.6 85 1.3 N 22 30 12 16 1018.8 1018.8 0.0
06/06:00am 13.8 10.0 11.1 84 1.4 NNE 22 32 12 17 1018.8 1018.8 0.0
06/05:30am 14.0 10.7 11.0 82 1.6 NNE 19 24 10 13 1018.8 1018.8 0.0
06/05:00am 13.9 10.8 10.4 79 1.8 N 17 20 9 11 1018.9 1018.9 0.0
06/04:30am 13.4 9.9 10.3 81 1.6 NNE 19 24 10 13 1018.9 1018.9 0.0
06/04:00am 13.4 10.4 10.5 82 1.5 NNE 17 20 9 11 1019.0 1019.0 0.0
06/03:30am 15.2 12.7 11.1 76 2.2 N 15 20 8 11 1019.3 1019.3 0.0
06/03:00am 15.5 12.5 10.8 73 2.5 N 17 20 9 11 1019.4 1019.4 0.0
06/02:30am 14.7 11.3 9.2 69 2.8 N 17 20 9 11 1019.4 1019.4 0.0
06/02:00am 14.7 12.1 9.4 70 2.7 N 13 17 7 9 1019.5 1019.5 0.0
06/01:30am 15.4 12.9 9.8 69 2.9 N 13 15 7 8 1019.7 1019.7 0.0
06/01:00am 15.2 13.4 9.4 68 3.0 N 9 11 5 6 1019.8 1019.8 0.0
06/12:30am 16.8 14.2 9.5 62 3.8 WNW 13 19 7 10 1020.0 1020.0 0.0
06/12:00am 17.0 12.6 9.1 59 4.1 W 22 28 12 15 1020.3 1020.3 0.0
 
Date/Time
WST
Temp
°C
App
Temp
°C
Dew
Point
Rel
Hum
%
Delta-T
°C
Wind Press
QNH
hPa
Press
MSL
hPa
Rain
since 9 am
mm
Dir
 
Spd
km/h
Gust
km/h
Spd
kts
Gust
kts
05/11:30pm 16.8 12.2 8.3 57 4.3 WNW 22 26 12 14 1020.4 1020.4 0.0
05/11:00pm 16.8 12.3 8.6 58 4.2 WNW 22 28 12 15 1020.5 1020.5 0.0
05/10:30pm 16.9 12.6 9.2 60 4.0 WNW 22 28 12 15 1020.5 1020.5 0.0
05/10:00pm 16.9 12.0 8.5 57 4.3 WNW 24 30 13 16 1020.6 1020.6 0.0
05/09:30pm 16.8 12.2 8.3 57 4.3 WNW 22 28 12 15 1020.7 1020.7 0.0
05/09:00pm 16.8 11.2 8.8 59 4.1 WNW 28 35 15 19 1020.7 1020.7 0.0
05/08:30pm 17.0 12.7 9.5 61 3.9 WNW 22 26 12 14 1020.6 1020.6 0.0
05/08:00pm 16.9 12.3 8.2 56 4.4 WNW 22 26 12 14 1020.6 1020.6 0.0
05/07:30pm 17.0 11.9 7.6 54 4.7 WNW 24 32 13 17 1020.8 1020.8 0.0
05/07:00pm 16.9 12.0 8.5 57 4.3 WNW 24 30 13 16 1020.6 1020.6 0.0
05/06:30pm 17.1 11.8 8.5 57 4.4 WNW 26 32 14 17 1020.3 1020.3 0.0
05/06:00pm 17.2 11.8 9.5 60 4.0 WNW 28 33 15 18 1020.0 1020.0 0.0
05/05:30pm 17.2 11.5 9.8 61 3.9 NW 30 35 16 19 1019.9 1019.9 0.0
05/05:00pm 17.5 11.8 9.9 61 4.0 NW 30 37 16 20 1019.8 1019.8 0.0
05/04:30pm 17.5 11.7 9.5 59 4.2 NW 30 35 16 19 1019.7 1019.7 0.0
05/04:00pm 18.0 13.7 9.2 56 4.6 NW 22 30 12 16 1019.6 1019.6 0.0
05/03:30pm 18.0 13.8 9.6 58 4.4 NW 22 28 12 15 1019.5 1019.5 0.0
05/03:00pm 18.3 15.2 10.2 59 4.3 NW 17 24 9 13 1019.5 1019.5 0.0
05/02:30pm 18.0 14.7 9.4 57 4.5 NW 17 20 9 11 1019.6 1019.6 0.0
05/02:00pm 18.2 14.4 9.2 55 4.7 WNW 19 24 10 13 1019.5 1019.5 0.0
05/01:30pm 17.9 13.9 9.0 56 4.6 WNW 20 24 11 13 1019.7 1019.7 0.0
05/01:00pm 17.9 13.9 8.3 53 4.9 WNW 19 24 10 13 1019.9 1019.9 0.0
05/12:30pm 18.0 14.0 8.2 52 5.0 WNW 19 22 10 12 1020.2 1020.2 0.0
05/12:00pm 18.3 15.6 9.1 55 4.8 NW 13 19 7 10 1020.6 1020.6 0.0
05/11:30am 17.8 15.3 8.2 53 4.9 WNW 11 13 6 7 1021.0 1021.0 0.0
05/11:00am 17.4 14.8 7.7 53 4.9 W 11 15 6 8 1021.1 1021.1 0.0
05/10:30am 17.7 15.6 8.3 54 4.8 WSW 9 13 5 7 1021.4 1021.4 0.0
05/10:00am 17.0 13.5 8.8 58 4.2 WSW 17 20 9 11 1021.6 1021.6 0.0
05/09:30am 16.3 13.0 8.2 58 4.1 WSW 15 20 8 11 1021.4 1021.4 0.0
05/09:00am 16.3 13.4 8.2 58 4.1 WSW 13 20 7 11 1021.2 1021.2 1.6
05/08:30am 15.7 11.5 7.4 57 4.1 SW 19 26 10 14 1020.9 1020.9 1.6
05/08:00am 15.3 11.1 7.4 59 3.9 WSW 19 24 10 13 1020.8 1020.8 1.6
05/07:30am 15.6 9.7 7.5 58 4.0 WSW 28 33 15 18 1020.9 1020.9 1.6
05/07:00am 15.6 11.5 8.7 63 3.5 SW 20 26 11 14 1020.6 1020.6 1.6
05/06:30am 15.6 12.0 8.5 62 3.6 WSW 17 26 9 14 1020.3 1020.3 1.6
05/06:00am 15.4 11.3 8.5 63 3.5 WSW 20 26 11 14 1020.1 1020.1 1.6
05/05:30am 15.4 11.5 8.5 63 3.5 WSW 19 24 10 13 1020.1 1020.1 1.6
05/05:00am 15.1 12.1 9.2 68 3.0 SW 15 19 8 10 1020.1 1020.1 1.6
05/04:30am 15.2 12.1 8.7 65 3.3 SW 15 20 8 11 1020.0 1020.0 1.6
05/04:00am 15.0 11.2 8.9 67 3.1 SW 19 26 10 14 1020.1 1020.1 1.6
05/03:30am 14.9 11.8 8.8 67 3.1 SW 15 20 8 11 1020.0 1020.0 1.6
05/03:00am 15.2 11.8 9.1 67 3.1 WSW 17 26 9 14 1020.2 1020.2 1.6
05/02:30am 14.7 11.7 9.2 69 2.8 SSW 15 19 8 10 1020.3 1020.3 1.6
05/02:00am 14.9 12.0 9.7 71 2.7 SSW 15 20 8 11 1020.2 1020.2 1.6
05/01:30am 15.1 11.6 10.1 72 2.6 SW 19 24 10 13 1020.1 1020.1 1.6
05/01:00am 15.4 12.0 11.1 75 2.3 SW 20 24 11 13 1020.1 1020.1 1.6
05/12:30am 15.8 11.2 10.9 72 2.6 SW 26 35 14 19 1020.3 1020.3 1.6
05/12:00am 15.8 11.4 11.7 76 2.2 SW 26 35 14 19 1020.3 1020.3 1.6
 
Date/Time
WST
Temp
°C
App
Temp
°C
Dew
Point
Rel
Hum
%
Delta-T
°C
Wind Press
QNH
hPa
Press
MSL
hPa
Rain
since 9 am
mm
Dir
 
Spd
km/h
Gust
km/h
Spd
kts
Gust
kts
04/11:30pm 15.9 11.3 12.2 78 2.0 SW 28 37 15 20 1020.2 1020.2 1.6
04/11:00pm 16.0 11.6 12.9 82 1.7 SW 28 35 15 19 1020.1 1020.1 1.6
04/10:30pm 16.1 11.9 13.6 85 1.4 SW 28 39 15 21 1020.0 1020.0 1.6
04/10:00pm 16.0 11.9 13.7 86 1.3 SW 28 35 15 19 1019.9 1019.9 1.6
04/09:30pm 15.9 12.2 14.9 94 0.6 SW 28 33 15 18 1019.9 1019.9 1.6
04/09:00pm 15.6 10.1 14.7 94 0.5 SW 37 46 20 25 1019.8 1019.8 0.6
04/08:51pm 16.8 11.1 15.2 90 0.9 W 39 56 21 30 1019.5 1019.5 0.0
04/08:30pm 18.0 11.9 13.0 72 2.8 WNW 37 46 20 25 1019.3 1019.3 0.0
04/08:00pm 17.4 10.4 13.7 79 2.1 WNW 43 54 23 29 1019.4 1019.4 0.0
04/07:30pm 18.0 11.3 13.4 74 2.6 WNW 41 48 22 26 1019.2 1019.2 0.0
04/07:00pm 17.7 10.7 12.5 71 2.9 WNW 41 46 22 25 1019.0 1019.0 0.0

Other Formats:

Comma delimited format used in spreadsheet applications
http://www.bom.gov.au/fwo/IDW60801/IDW60801.94601.axf

JavaScript Object Notation format (JSON) in row-major order
http://www.bom.gov.au/fwo/IDW60801/IDW60801.94601.json